createdAt,value
2018-06-24T16:52:05.952Z,37.31
2018-06-24T16:54:34.801Z,38.56
2018-06-24T16:57:03.705Z,38.77
2018-06-24T16:59:32.606Z,39.81
2018-06-24T17:02:01.531Z,39.14
2018-06-24T17:04:30.386Z,40.13
2018-06-24T17:06:59.210Z,39.94
2018-06-24T17:09:27.983Z,41.63
2018-06-24T17:11:56.828Z,42.08
2018-06-24T17:14:26.060Z,42.48
2018-06-24T17:16:54.891Z,42.88
2018-06-24T17:19:23.712Z,43.24
2018-06-24T17:21:52.562Z,43.63
2018-06-24T17:24:21.341Z,44.17
2018-06-24T17:26:50.212Z,44.80
2018-06-24T17:29:19.270Z,44.81
2018-06-24T17:31:48.095Z,45.09
2018-06-24T17:34:17.032Z,45.18
2018-06-24T17:36:45.917Z,44.54
2018-06-24T17:39:14.712Z,45.04
2018-06-24T17:41:45.947Z,44.57
2018-06-24T17:44:15.176Z,45.13
2018-06-24T17:46:44.073Z,45.61
2018-06-24T17:49:12.866Z,45.75
2018-06-24T17:51:41.750Z,45.48
2018-06-24T17:54:10.608Z,45.27
2018-06-24T17:56:39.453Z,45.61
2018-06-24T17:59:08.349Z,46.40
2018-06-24T18:01:37.171Z,47.25
2018-06-24T18:04:06.146Z,47.06
2018-06-24T18:06:35.086Z,46.61
2018-06-24T18:09:04.986Z,47.18
2018-06-24T18:11:33.830Z,47.82
2018-06-24T18:14:02.722Z,49.92
2018-06-24T18:16:31.543Z,50.77
2018-06-24T18:19:00.432Z,50.38
2018-06-24T18:21:29.375Z,49.84
2018-06-24T18:23:58.301Z,50.21
2018-06-24T18:26:27.635Z,51.12
2018-06-24T18:28:56.598Z,51.64
2018-06-24T18:31:25.423Z,51.84
2018-06-24T18:33:54.213Z,51.51
2018-06-24T18:36:23.154Z,52.19
2018-06-24T18:38:52.036Z,52.41
2018-06-24T18:41:21.267Z,53.48
2018-06-24T18:43:50.189Z,52.88
2018-06-24T18:46:19.024Z,53.35
2018-06-24T18:48:47.855Z,53.21
2018-06-24T18:51:16.782Z,53.35
2018-06-24T18:53:45.613Z,53.80
2018-06-24T18:56:14.427Z,53.55
2018-06-24T18:58:43.667Z,53.63
2018-06-24T19:01:12.590Z,53.66
2018-06-24T19:03:41.365Z,53.39
2018-06-24T19:06:10.336Z,53.43
2018-06-24T19:08:39.204Z,53.29
2018-06-24T19:11:07.989Z,52.98
2018-06-24T19:13:36.964Z,53.44
2018-06-24T19:16:06.003Z,54.04
2018-06-24T19:18:34.839Z,52.34
2018-06-24T19:21:03.942Z,52.18
2018-06-24T19:23:32.954Z,51.53
2018-06-24T19:26:01.843Z,53.69
2018-06-24T19:28:30.861Z,55.11
2018-06-24T19:30:59.735Z,51.97
2018-06-24T19:33:28.575Z,51.43
2018-06-24T19:35:57.451Z,52.26
2018-06-24T19:38:26.227Z,52.99
2018-06-24T19:40:55.052Z,53.43
2018-06-24T19:43:24.048Z,52.14
2018-06-24T19:45:52.952Z,52.79
2018-06-24T19:48:21.732Z,53.34
2018-06-24T19:50:50.917Z,53.36
2018-06-24T19:53:19.801Z,54.18
2018-06-24T19:55:48.649Z,55.30
2018-06-24T19:58:17.476Z,55.78
2018-06-24T20:00:46.307Z,54.89
2018-06-24T20:03:15.183Z,55.82
2018-06-24T20:05:44.159Z,55.86
2018-06-24T20:08:13.017Z,55.86
2018-06-24T20:10:41.822Z,55.74
2018-06-24T20:13:10.643Z,56.16
2018-06-24T20:15:39.442Z,55.51
2018-06-24T20:18:08.249Z,55.65
2018-06-24T20:20:37.230Z,55.78
2018-06-24T20:23:07.068Z,55.84
2018-06-24T20:25:35.843Z,56.36
2018-06-24T20:28:04.974Z,56.43
2018-06-24T20:30:33.785Z,56.54
2018-06-24T20:33:02.604Z,56.40
2018-06-24T20:35:31.586Z,56.54
2018-06-24T20:38:00.593Z,56.69
2018-06-24T20:40:29.388Z,57.34
2018-06-24T20:42:58.281Z,57.74
2018-06-24T20:45:27.068Z,57.53
2018-06-24T20:47:55.859Z,57.48
2018-06-24T20:50:24.693Z,58.64
2018-06-24T20:52:53.489Z,58.50
2018-06-24T20:55:22.343Z,58.49
2018-06-24T20:57:51.529Z,58.75
2018-06-24T21:00:20.340Z,57.97
2018-06-24T21:02:49.100Z,57.94
2018-06-24T21:05:17.968Z,58.35
2018-06-24T21:07:46.744Z,58.38
2018-06-24T21:10:15.599Z,57.76
2018-06-24T21:12:44.435Z,57.71
2018-06-24T21:15:13.241Z,58.25
2018-06-24T21:17:42.030Z,58.31
2018-06-24T21:20:10.952Z,58.74
2018-06-24T21:22:39.740Z,57.95
2018-06-24T21:25:08.562Z,58.20
2018-06-24T21:27:37.698Z,58.76
2018-06-24T21:30:06.536Z,58.95
2018-06-24T21:32:35.367Z,59.30
2018-06-24T21:35:04.258Z,59.18
2018-06-24T21:37:33.079Z,59.78
2018-06-24T21:40:01.917Z,59.86
2018-06-24T21:42:30.964Z,60.65
2018-06-24T21:44:59.740Z,59.78
2018-06-24T21:47:28.528Z,59.77
2018-06-24T21:49:57.691Z,59.53
2018-06-24T21:52:26.553Z,59.90
2018-06-24T21:54:55.320Z,60.56
2018-06-24T21:57:24.137Z,60.45
2018-06-24T21:59:52.956Z,60.28
2018-06-24T22:02:21.738Z,60.47
2018-06-24T22:04:50.748Z,61.10
2018-06-24T22:07:19.519Z,60.52
2018-06-24T22:09:48.284Z,60.78
2018-06-24T22:12:17.123Z,60.95
2018-06-24T22:14:45.870Z,60.54
2018-06-24T22:17:16.768Z,59.90
2018-06-24T22:19:45.692Z,60.01
2018-06-24T22:22:14.502Z,59.78
2018-06-24T22:24:43.254Z,59.58
2018-06-24T22:27:12.465Z,59.84
2018-06-24T22:29:41.307Z,60.65
2018-06-24T22:32:10.135Z,60.87
2018-06-24T22:34:39.097Z,60.42
2018-06-24T22:37:07.935Z,60.76
2018-06-24T22:39:36.713Z,60.03
2018-06-24T22:42:05.714Z,60.14
2018-06-24T22:44:34.513Z,60.22
2018-06-24T22:47:03.297Z,60.04
2018-06-24T22:49:32.329Z,60.15
2018-06-24T22:52:01.164Z,60.39
2018-06-24T22:54:29.913Z,60.46
2018-06-24T22:56:59.086Z,61.03
2018-06-24T22:59:38.784Z,60.77
2018-06-24T23:02:08.020Z,61.13
2018-06-24T23:04:36.828Z,61.06
2018-06-24T23:07:05.600Z,61.35
2018-06-24T23:09:34.464Z,61.22
2018-06-24T23:12:03.273Z,61.41
2018-06-24T23:14:32.111Z,61.56
2018-06-24T23:17:01.098Z,61.49
2018-06-24T23:19:29.873Z,61.87
2018-06-24T23:21:58.706Z,61.71
2018-06-24T23:24:27.672Z,61.99
2018-06-24T23:26:56.465Z,62.57
2018-06-24T23:29:25.240Z,62.76
2018-06-24T23:31:54.097Z,63.55
2018-06-24T23:34:22.879Z,63.25
2018-06-24T23:36:51.713Z,63.42
2018-06-24T23:39:20.626Z,63.16
2018-06-24T23:41:49.406Z,63.62
2018-06-24T23:44:18.217Z,62.87
2018-06-24T23:46:47.026Z,62.51
2018-06-24T23:49:15.779Z,62.38
2018-06-24T23:51:44.582Z,62.49
2018-06-24T23:54:13.567Z,62.37
2018-06-24T23:56:42.365Z,63.00
2018-06-24T23:59:11.238Z,63.19
